Time;durP1;ratioP1;P1;durP2;ratioP2;P2;SDS_P1;SDS_P2;PMS_P1;PMS_P2;Temp;Humidity;BMP_temperature;BMP_pressure;BME280_temperature;BME280_humidity;BME280_pressure;Samples;Min_cycle;Max_cycle;Signal;HPM_P1;HPM_P2
2021/04/22 00:01:33;;;;;;;7.23;3.00;;;;;;;6.35;67.80;99924.69;6050830;29;20320;-73
2021/04/22 00:04:36;;;;;;;4.77;2.90;;;;;;;6.59;67.45;99927.56;6050953;29;20191;-72
2021/04/22 00:07:39;;;;;;;3.17;2.87;;;;;;;6.58;67.84;99922.34;6051106;29;20205;-72
2021/04/22 00:10:46;;;;;;;8.83;3.10;;;;;;;6.73;67.19;99906.66;6050501;29;20191;-73
2021/04/22 00:13:49;;;;;;;13.10;2.93;;;;;;;6.94;66.75;99923.47;6050527;29;20191;-73
2021/04/22 00:16:52;;;;;;;5.97;2.90;;;;;;;6.92;65.59;99890.31;6049481;29;20260;-72
2021/04/22 00:19:55;;;;;;;8.50;3.07;;;;;;;7.12;65.92;99914.63;6049428;29;20411;-72
2021/04/22 00:22:59;;;;;;;8.17;3.00;;;;;;;7.03;65.71;99918.66;6050547;29;20195;-73
2021/04/22 00:26:03;;;;;;;7.13;3.00;;;;;;;7.06;65.99;99918.19;6050327;29;20198;-73
2021/04/22 00:29:08;;;;;;;3.47;2.80;;;;;;;7.08;65.74;99910.69;6050554;29;20195;-73
2021/04/22 00:32:12;;;;;;;6.37;2.80;;;;;;;7.24;65.72;99925.63;6049203;29;20486;-72
2021/04/22 00:35:15;;;;;;;6.27;2.93;;;;;;;7.09;65.54;99917.75;6049128;29;20226;-74
2021/04/22 00:38:19;;;;;;;9.10;3.63;;;;;;;7.27;65.23;99926.00;6050274;29;20222;-73
2021/04/22 00:41:23;;;;;;;20.77;3.93;;;;;;;7.33;65.03;99925.16;6049179;29;20238;-73
2021/04/22 00:44:47;;;;;;;9.27;3.23;;;;;;;7.38;65.33;99928.03;6049117;29;20416;-72
2021/04/22 00:47:50;;;;;;;11.20;3.17;;;;;;;7.45;64.99;99936.97;6048346;29;20485;-73
2021/04/22 00:50:54;;;;;;;7.70;2.67;;;;;;;7.24;65.62;99904.72;6049719;29;20197;-72
2021/04/22 00:53:58;;;;;;;5.85;2.80;;;;;;;7.40;66.24;99925.94;6032780;29;20394;-73
2021/04/22 00:57:04;;;;;;;8.20;3.10;;;;;;;7.25;67.48;99932.69;6033550;29;20269;-73
2021/04/22 01:00:10;;;;;;;3.30;3.00;;;;;;;6.88;69.15;99942.50;6049700;29;20218;-73
2021/04/22 01:03:33;;;;;;;5.73;3.20;;;;;;;6.63;70.94;99941.50;6061163;24;20237;-72
2021/04/22 01:06:37;;;;;;;2.92;2.70;;;;;;;6.77;71.16;99941.28;6048463;29;20355;-71
2021/04/22 01:09:41;;;;;;;6.38;2.63;;;;;;;6.90;70.84;99937.69;6048164;29;20383;-72
2021/04/22 01:12:45;;;;;;;3.17;2.73;;;;;;;6.80;72.64;99945.44;6049134;29;20198;-71
2021/04/22 01:15:48;;;;;;;2.37;2.27;;;;;;;6.45;73.25;99898.00;6048227;29;20195;-72
2021/04/22 01:18:51;;;;;;;2.93;2.43;;;;;;;6.69;73.48;99927.13;6048408;29;20275;-71
2021/04/22 01:21:56;;;;;;;7.13;2.73;;;;;;;6.86;73.38;99944.56;6048052;29;20194;-71
2021/04/22 01:24:59;;;;;;;4.40;2.40;;;;;;;6.65;74.90;99948.38;6032408;29;20282;-71
2021/04/22 01:28:04;;;;;;;3.90;2.73;;;;;;;6.68;75.17;99953.38;6049021;29;20211;-72
2021/04/22 01:31:09;;;;;;;3.03;2.33;;;;;;;6.72;75.11;99948.38;6049349;29;20208;-71
2021/04/22 01:34:13;;;;;;;2.43;2.43;;;;;;;6.77;75.09;99948.56;6048965;29;20202;-72
2021/04/22 01:37:17;;;;;;;2.80;2.53;;;;;;;6.56;76.77;99946.13;6048066;29;20191;-72
2021/04/22 01:40:21;;;;;;;2.73;2.60;;;;;;;6.40;78.16;99949.28;6047586;29;20253;-72
2021/04/22 01:43:25;;;;;;;2.67;2.57;;;;;;;6.41;79.14;99949.09;6048976;29;20198;-72
2021/04/22 01:46:28;;;;;;;6.03;2.93;;;;;;;6.34;79.86;99936.59;6048850;29;20274;-71
2021/04/22 01:49:31;;;;;;;3.10;2.90;;;;;;;6.21;81.35;99962.63;6048834;29;20198;-72
2021/04/22 01:52:38;;;;;;;3.13;2.90;;;;;;;6.26;81.77;99960.16;6047471;29;20482;-74
2021/04/22 01:55:43;;;;;;;3.53;3.23;;;;;;;6.37;81.66;99955.16;6048324;29;20275;-72
2021/04/22 01:58:47;;;;;;;4.70;3.40;;;;;;;6.40;82.21;99954.69;6046542;29;20413;-72
2021/04/22 02:01:50;;;;;;;4.27;3.43;;;;;;;6.40;82.32;99955.53;6048381;29;20230;-72
2021/04/22 02:04:53;;;;;;;5.20;3.47;;;;;;;6.34;82.79;99955.56;6047442;29;20319;-72
2021/04/22 02:07:58;;;;;;;3.90;3.50;;;;;;;6.42;82.80;99958.06;6048251;29;20257;-71
2021/04/22 02:11:02;;;;;;;4.47;3.80;;;;;;;6.40;83.12;99957.41;6047213;29;20193;-72
2021/04/22 02:14:24;;;;;;;3.97;3.67;;;;;;;6.35;83.39;99962.63;6047504;29;20443;-71
2021/04/22 02:18:00;;;;;;;3.43;3.13;;;;;;;6.47;83.07;99963.66;6047004;29;20384;-72
2021/04/22 02:21:22;;;;;;;3.43;3.30;;;;;;;6.46;82.95;99965.53;6047349;29;20250;-72
2021/04/22 02:24:44;;;;;;;5.57;3.90;;;;;;;6.47;82.95;99971.78;6047399;29;20225;-71
2021/04/22 02:28:02;;;;;;;3.77;3.50;;;;;;;6.40;83.02;99968.25;6047050;29;20426;-72
2021/04/22 02:31:19;;;;;;;3.67;3.53;;;;;;;6.51;82.59;99983.88;6044197;29;20335;-70
2021/04/22 02:34:41;;;;;;;3.30;3.03;;;;;;;6.54;82.18;99972.63;6046971;29;20416;-71
2021/04/22 02:38:07;;;;;;;3.87;3.53;;;;;;;6.40;82.59;99976.38;6048463;29;20214;-72
2021/04/22 02:41:30;;;;;;;5.40;3.40;;;;;;;6.35;83.68;99984.31;6033757;29;20242;-72
2021/04/22 02:44:33;;;;;;;6.37;3.97;;;;;;;6.39;83.18;99969.31;6046980;29;20217;-70
2021/04/22 02:47:37;;;;;;;5.17;3.23;;;;;;;6.38;83.05;99973.03;6047001;29;20254;-72
2021/04/22 02:50:43;;;;;;;6.23;3.30;;;;;;;6.46;82.89;99970.13;6047847;29;20261;-72
2021/04/22 02:53:46;;;;;;;3.30;3.10;;;;;;;6.39;83.29;99969.31;6046642;29;20504;-71
2021/04/22 02:56:50;;;;;;;3.67;3.40;;;;;;;6.22;83.70;99974.31;6046676;29;20415;-71
2021/04/22 02:59:53;;;;;;;3.33;3.10;;;;;;;6.22;84.05;99980.56;6046782;29;20308;-71
2021/04/22 03:02:56;;;;;;;3.83;3.27;;;;;;;6.22;84.31;99975.16;6047714;29;20214;-71
2021/04/22 03:06:00;;;;;;;3.63;3.33;;;;;;;6.06;85.04;99983.69;6046632;29;20380;-72
2021/04/22 03:09:04;;;;;;;3.57;3.30;;;;;;;6.14;85.27;99983.47;6046558;29;20486;-71
2021/04/22 03:12:10;;;;;;;5.53;3.40;;;;;;;6.07;84.66;99977.25;6051499;29;20195;-72
2021/04/22 03:15:14;;;;;;;3.23;2.93;;;;;;;6.09;85.24;99991.41;6052102;29;20201;-71
2021/04/22 03:18:17;;;;;;;5.53;3.10;;;;;;;6.21;83.86;100002.47;6052069;29;20226;-71
2021/04/22 03:21:21;;;;;;;6.53;3.10;;;;;;;6.09;84.14;99991.41;6050774;29;20505;-72
2021/04/22 03:24:24;;;;;;;3.17;2.90;;;;;;;6.15;83.81;100009.53;6051843;29;20194;-72
2021/04/22 03:27:28;;;;;;;3.30;3.03;;;;;;;6.22;83.31;100002.22;6051813;29;20225;-71
2021/04/22 03:30:33;;;;;;;3.07;2.80;;;;;;;6.18;83.43;100011.84;6050419;29;20504;-71
2021/04/22 03:33:39;;;;;;;3.13;2.93;;;;;;;6.17;83.47;100020.16;6050343;29;20198;-71
2021/04/22 03:36:43;;;;;;;4.90;3.07;;;;;;;6.25;82.95;100018.06;6050258;29;20423;-71
2021/04/22 03:39:47;;;;;;;4.17;3.37;;;;;;;6.12;82.73;100018.06;6051023;29;20225;-72
2021/04/22 03:42:51;;;;;;;4.50;3.13;;;;;;;5.86;83.67;100015.34;6050236;29;20272;-71
2021/04/22 03:46:10;;;;;;;3.30;2.97;;;;;;;6.01;83.78;100026.00;6051180;29;20195;-71
2021/04/22 03:49:13;;;;;;;4.23;3.23;;;;;;;6.16;83.26;100013.91;6051006;29;20277;-71
2021/04/22 03:52:16;;;;;;;4.07;3.20;;;;;;;6.19;82.78;100028.91;6050917;29;20283;-71
2021/04/22 03:55:20;;;;;;;3.70;3.00;;;;;;;6.08;83.44;100011.41;6050152;29;20203;-71
2021/04/22 03:58:24;;;;;;;4.87;3.40;;;;;;;6.12;84.12;100011.81;6049693;29;20458;-71
2021/04/22 04:01:27;;;;;;;5.13;3.60;;;;;;;6.06;83.90;100018.91;6051040;29;20273;-71
2021/04/22 04:04:30;;;;;;;5.30;3.07;;;;;;;6.11;83.53;100019.09;6050043;29;20313;-72
2021/04/22 04:07:34;;;;;;;4.23;3.20;;;;;;;6.04;84.48;100026.41;6051017;29;20197;-71
2021/04/22 04:10:37;;;;;;;3.47;3.30;;;;;;;6.13;84.03;100030.59;6049577;29;20373;-71
2021/04/22 04:13:41;;;;;;;3.83;3.53;;;;;;;5.58;83.35;99933.47;6049630;29;20225;-71
2021/04/22 04:16:44;;;;;;;4.03;3.40;;;;;;;6.17;83.90;100033.69;6050370;29;20194;-71
2021/04/22 04:19:47;;;;;;;6.90;3.83;;;;;;;6.30;83.29;100042.66;6049301;29;20226;-71
2021/04/22 04:22:50;;;;;;;6.27;3.90;;;;;;;6.13;83.80;100040.56;6049771;29;20277;-72
2021/04/22 04:25:53;;;;;;;4.17;3.87;;;;;;;6.04;84.46;100039.94;6049321;29;20368;-72
2021/04/22 04:28:57;;;;;;;6.63;4.03;;;;;;;6.07;84.87;100052.22;6050578;29;20197;-71
2021/04/22 04:32:00;;;;;;;9.53;4.53;;;;;;;6.15;84.12;100044.75;6049223;29;20242;-72
2021/04/22 04:35:05;;;;;;;11.87;4.30;;;;;;;6.06;84.19;100056.81;6050187;29;20234;-71
2021/04/22 04:38:10;;;;;;;4.73;4.13;;;;;;;6.15;83.90;100049.31;6048927;29;20261;-72
2021/04/22 04:41:13;;;;;;;5.23;3.97;;;;;;;6.20;83.20;100063.91;6049840;29;20229;-72
2021/04/22 04:44:19;;;;;;;7.23;4.30;;;;;;;6.03;83.33;100059.94;6048750;29;20422;-71
2021/04/22 04:47:23;;;;;;;4.50;4.10;;;;;;;6.08;83.13;100064.75;6048788;29;20359;-71
2021/04/22 04:50:26;;;;;;;4.87;4.37;;;;;;;6.15;82.49;100082.66;6050047;29;20227;-72
2021/04/22 04:53:29;;;;;;;4.40;4.00;;;;;;;6.03;81.99;100078.06;6048739;29;20194;-71
2021/04/22 04:56:32;;;;;;;4.37;3.33;;;;;;;5.94;81.74;100085.53;6048738;29;20477;-71
2021/04/22 04:59:36;;;;;;;3.77;3.17;;;;;;;5.86;82.22;100093.84;6048459;29;20297;-71
2021/04/22 05:02:40;;;;;;;3.03;2.87;;;;;;;5.90;81.41;100099.69;6048492;29;20390;-72
2021/04/22 05:05:44;;;;;;;2.90;2.70;;;;;;;5.73;81.73;100107.31;6049211;29;20353;-71
2021/04/22 05:08:47;;;;;;;3.07;2.87;;;;;;;5.76;81.84;100109.59;6049580;29;20362;-71
2021/04/22 05:11:51;;;;;;;2.70;2.60;;;;;;;5.78;81.39;100107.53;6048328;29;20525;-72
2021/04/22 05:14:55;;;;;;;2.60;2.50;;;;;;;5.79;81.11;100106.50;6048283;29;20545;-72
2021/04/22 05:17:58;;;;;;;2.37;2.27;;;;;;;5.81;80.74;100111.69;6049039;29;20194;-74
2021/04/22 05:21:01;;;;;;;1.93;1.83;;;;;;;5.77;80.31;100111.28;6049160;29;20266;-72
2021/04/22 05:24:06;;;;;;;1.60;1.60;;;;;;;5.48;80.43;100085.38;6049066;29;20193;-71
2021/04/22 05:27:10;;;;;;;1.60;1.60;;;;;;;5.78;79.79;100115.66;6048922;29;20081;-71
2021/04/22 05:30:16;;;;;;;1.30;1.30;;;;;;;5.59;79.38;100124.53;6031604;29;20213;-71
2021/04/22 05:33:19;;;;;;;2.13;1.30;;;;;;;5.58;78.62;100128.28;6048765;29;20201;-71
2021/04/22 05:36:22;;;;;;;1.00;1.00;;;;;;;5.43;79.17;100124.88;6047487;29;20199;-71
2021/04/22 05:39:26;;;;;;;;;;;;;;;5.40;79.52;100133.38;6049151;29;20080;-72
2021/04/22 05:42:28;;;;;;;;;;;;;;;5.47;79.23;100137.00;6047849;29;20276;-72
2021/04/22 05:45:32;;;;;;;;;;;;;;;5.52;78.23;100137.22;6048941;29;19920;-72
2021/04/22 05:48:35;;;;;;;1.27;1.27;;;;;;;5.70;77.42;100134.78;6048602;29;20218;-72
2021/04/22 05:51:39;;;;;;;0.93;0.90;;;;;;;5.34;77.19;100148.53;6048580;29;20248;-71
2021/04/22 05:54:42;;;;;;;0.90;0.90;;;;;;;5.15;77.30;100132.22;6048328;29;20237;-71
2021/04/22 05:57:47;;;;;;;0.90;0.90;;;;;;;5.19;78.64;100149.72;6047287;29;20528;-71
2021/04/22 06:00:51;;;;;;;1.00;0.93;;;;;;;5.41;77.61;100162.13;6047906;29;20289;-72
2021/04/22 06:03:54;;;;;;;0.80;0.80;;;;;;;5.42;77.12;100172.72;6047265;29;20293;-72
2021/04/22 06:07:22;;;;;;;2.43;0.73;;;;;;;5.26;76.63;100183.06;6048060;29;20200;-72
2021/04/22 06:10:26;;;;;;;0.70;0.70;;;;;;;5.20;77.47;100190.09;6047796;29;20060;-71
2021/04/22 06:13:29;;;;;;;0.70;0.70;;;;;;;5.16;77.60;100178.00;6046967;29;20484;-71
2021/04/22 06:16:33;;;;;;;0.80;0.80;;;;;;;5.19;76.98;100174.06;6048216;29;20194;-72
2021/04/22 06:19:36;;;;;;;0.60;0.60;;;;;;;5.29;77.26;100182.66;6047632;29;20255;-72
2021/04/22 06:22:40;;;;;;;0.70;0.70;;;;;;;5.32;77.24;100187.66;6046939;29;20206;-71
2021/04/22 06:25:43;;;;;;;1.13;0.70;;;;;;;5.08;77.50;100192.47;6047912;29;20193;-71
2021/04/22 06:28:48;;;;;;;0.70;0.70;;;;;;;5.34;76.67;100201.84;6047629;29;20209;-71
2021/04/22 06:31:55;;;;;;;1.50;0.70;;;;;;;5.36;76.35;100205.16;6046660;29;20297;-71
2021/04/22 06:34:59;;;;;;;0.50;0.50;;;;;;;5.11;76.42;100152.59;6047511;29;20236;-73
2021/04/22 06:38:02;;;;;;;0.60;0.60;;;;;;;5.41;76.08;100208.97;6047347;29;20200;-71
2021/04/22 06:41:05;;;;;;;0.60;0.60;;;;;;;5.14;76.55;100212.50;6047130;29;20221;-72
2021/04/22 06:44:11;;;;;;;2.63;0.53;;;;;;;4.94;77.05;100216.91;6047660;29;20200;-72
2021/04/22 06:47:15;;;;;;;0.60;0.60;;;;;;;4.92;78.09;100222.53;6050594;29;20514;-72
2021/04/22 06:50:21;;;;;;;0.70;0.70;;;;;;;4.74;78.15;100222.16;6050701;29;20233;-72
2021/04/22 06:53:24;;;;;;;0.60;0.60;;;;;;;4.56;79.25;100216.38;6051802;29;20255;-72
2021/04/22 06:56:27;;;;;;;1.03;0.77;;;;;;;4.64;79.48;100215.41;6051803;29;20194;-72
2021/04/22 06:59:30;;;;;;;0.80;0.80;;;;;;;4.48;79.71;100216.50;6051666;29;20196;-72
2021/04/22 07:02:34;;;;;;;0.70;0.70;;;;;;;4.71;79.35;100230.66;6050568;29;20216;-72
2021/04/22 07:05:38;;;;;;;0.70;0.70;;;;;;;4.47;79.31;100230.22;6034600;29;20248;-72
2021/04/22 07:08:42;;;;;;;0.90;0.80;;;;;;;4.57;79.10;100231.53;6051764;29;20292;-72
2021/04/22 07:11:46;;;;;;;0.70;0.70;;;;;;;4.44;78.97;100234.13;6050767;29;20236;-72
2021/04/22 07:14:49;;;;;;;0.80;0.80;;;;;;;4.16;81.12;100238.59;6050570;29;20220;-72
2021/04/22 07:17:53;;;;;;;0.70;0.70;;;;;;;4.23;80.49;100244.91;6051302;29;20225;-72
2021/04/22 07:20:57;;;;;;;0.60;0.60;;;;;;;4.26;81.27;100244.53;6051297;29;20248;-73
2021/04/22 07:24:00;;;;;;;1.10;1.10;;;;;;;4.20;81.08;100264.19;6051369;29;20268;-72
2021/04/22 07:27:03;;;;;;;0.83;0.83;;;;;;;3.90;81.77;100259.88;6051022;29;20225;-72
2021/04/22 07:30:09;;;;;;;2.83;0.70;;;;;;;4.11;81.62;100257.22;6050451;29;20203;-72
2021/04/22 07:33:18;;;;;;;0.70;0.70;;;;;;;4.19;81.79;100266.03;6050014;29;20384;-72
2021/04/22 07:36:21;;;;;;;0.60;0.60;;;;;;;4.02;81.33;100259.19;6049918;29;20539;-72
2021/04/22 07:39:24;;;;;;;0.60;0.60;;;;;;;4.04;80.90;100261.69;6051236;29;20201;-72
2021/04/22 07:42:28;;;;;;;0.70;0.70;;;;;;;4.26;80.69;100269.66;6050146;29;20192;-72
2021/04/22 07:45:34;;;;;;;1.20;0.80;;;;;;;4.20;81.27;100281.22;6050977;29;20237;-72
2021/04/22 07:48:38;;;;;;;0.80;0.80;;;;;;;4.16;81.30;100276.41;6051334;29;20197;-72
2021/04/22 07:51:41;;;;;;;1.57;0.60;;;;;;;3.71;82.57;100243.22;6033706;29;20214;-72
2021/04/22 07:54:44;;;;;;;2.93;0.90;;;;;;;3.48;83.99;100282.94;6049965;29;20476;-72
2021/04/22 07:57:49;;;;;;;1.17;0.80;;;;;;;3.76;83.44;100297.47;6049883;29;20229;-72
2021/04/22 08:00:55;;;;;;;0.87;0.60;;;;;;;3.73;82.83;100300.53;6050043;29;20227;-70
2021/04/22 08:03:59;;;;;;;1.73;0.90;;;;;;;3.68;83.75;100294.84;6050100;29;20235;-73
2021/04/22 08:07:04;;;;;;;2.00;0.70;;;;;;;3.74;83.40;100298.66;6050129;29;20471;-72
2021/04/22 08:10:10;;;;;;;0.70;0.70;;;;;;;4.12;83.89;100307.47;6050949;29;20236;-72
2021/04/22 08:13:15;;;;;;;0.70;0.70;;;;;;;3.76;83.16;100313.66;6049709;29;20221;-72
2021/04/22 08:16:18;;;;;;;0.93;0.93;;;;;;;3.99;83.47;100301.91;6049510;29;20389;-72
2021/04/22 08:19:22;;;;;;;0.90;0.90;;;;;;;3.92;83.35;100301.84;6050671;29;20198;-71
2021/04/22 08:22:26;;;;;;;0.87;0.77;;;;;;;3.82;84.06;100327.41;6050675;29;20226;-72
2021/04/22 08:25:35;;;;;;;0.80;0.80;;;;;;;3.75;82.78;100319.22;6050292;29;20234;-71
2021/04/22 08:28:38;;;;;;;0.93;0.93;;;;;;;3.93;83.94;100318.88;6050525;29;20199;-71
2021/04/22 08:31:41;;;;;;;1.60;0.90;;;;;;;3.95;83.33;100320.34;6050166;29;20196;-72
2021/04/22 08:34:46;;;;;;;0.80;0.80;;;;;;;4.01;83.92;100326.84;6050051;29;20195;-71
2021/04/22 08:37:49;;;;;;;1.80;0.83;;;;;;;3.80;84.08;100327.59;6048908;29;20317;-71
2021/04/22 08:40:53;;;;;;;0.90;0.90;;;;;;;3.77;84.53;100334.19;6049056;29;20219;-71
2021/04/22 08:43:57;;;;;;;0.90;0.90;;;;;;;3.79;83.60;100340.28;6048729;29;20422;-72
2021/04/22 08:47:01;;;;;;;2.13;0.90;;;;;;;3.89;83.08;100341.84;6049590;29;20194;-72
2021/04/22 08:50:08;;;;;;;0.90;0.90;;;;;;;3.80;83.38;100352.72;6049315;29;20193;-72
2021/04/22 08:53:25;;;;;;;1.43;1.07;;;;;;;3.95;83.41;100344.66;6049747;29;20266;-71
2021/04/22 08:56:34;;;;;;;0.90;0.90;;;;;;;3.94;84.06;100352.91;6049508;29;20192;-71
2021/04/22 08:59:37;;;;;;;;;;;;;;;4.03;83.01;100349.13;6048794;29;20074;-70
2021/04/22 09:02:40;;;;;;;;;;;;;;;4.12;83.66;100350.69;6048872;29;20261;-71
2021/04/22 09:05:45;;;;;;;;;;;;;;;4.05;83.47;100349.75;6049005;29;19920;-70
2021/04/22 09:08:50;;;;;;;;;;;;;;;3.96;82.77;100367.06;6049383;29;19920;-70
2021/04/22 09:11:53;;;;;;;;;;;;;;;4.14;83.95;100357.56;6048627;29;20114;-70
2021/04/22 09:14:58;;;;;;;;;;;;;;;3.95;83.81;100362.69;6048525;29;19927;-71
2021/04/22 09:18:02;;;;;;;;;;;;;;;3.96;84.97;100384.09;6049710;29;19919;-70
2021/04/22 09:21:16;;;;;;;;;;;;;;;4.03;84.08;100378.81;6048262;29;20207;-70
2021/04/22 09:24:20;;;;;;;;;;;;;;;4.10;84.71;100385.97;6024181;29;19927;-70
2021/04/22 09:27:23;;;;;;;;;;;;;;;3.96;84.83;100383.25;6026165;29;19920;-69
2021/04/22 09:30:30;;;;;;;;;;;;;;;4.09;84.77;100396.94;6025155;29;20149;-71
2021/04/22 09:33:34;;;;;;;;;;;;;;;4.13;85.09;100390.16;6026117;29;19927;-70
2021/04/22 09:36:40;;;;;;;;;;;;;;;4.30;83.79;100402.44;6026427;29;19927;-71
2021/04/22 09:39:43;;;;;;;;;;;;;;;4.11;84.86;100397.63;6024794;29;20276;-71
2021/04/22 09:42:46;;;;;;;;;;;;;;;4.29;84.53;100412.41;6024855;29;20200;-69
2021/04/22 09:45:51;;;;;;;;;;;;;;;4.11;84.99;100403.00;6024698;29;19946;-71
2021/04/22 09:48:53;;;;;;;;;;;;;;;4.16;86.17;100417.59;6025680;29;19927;-71
2021/04/22 09:52:05;;;;;;;;;;;;;;;4.12;85.19;100420.88;6025892;29;19921;-70
2021/04/22 09:55:10;;;;;;;;;;;;;;;4.24;85.00;100425.63;6025594;29;19921;-70
2021/04/22 09:58:23;;;;;;;;;;;;;;;4.15;84.13;100431.31;6025657;29;19920;-70
2021/04/22 10:01:27;;;;;;;;;;;;;;;4.15;84.50;100426.75;6025551;29;19924;-71
2021/04/22 10:04:31;;;;;;;;;;;;;;;4.10;84.54;100436.44;6025679;29;19988;-71
2021/04/22 10:07:35;;;;;;;;;;;;;;;4.17;86.08;100434.66;6024557;29;20141;-70
2021/04/22 10:10:38;;;;;;;;;;;;;;;4.40;84.99;100440.81;6024572;29;19928;-71
2021/04/22 10:13:43;;;;;;;;;;;;;;;4.43;83.78;100446.69;6008064;29;20252;-70
2021/04/22 10:16:46;;;;;;;;;;;;;;;4.29;83.58;100454.75;6024445;29;20234;-70
2021/04/22 10:19:56;;;;;;;;;;;;;;;4.39;85.06;100458.88;6024850;29;19920;-70
2021/04/22 10:23:00;;;;;;;;;;;;;;;4.34;84.61;100468.53;6025433;29;19927;-70
2021/04/22 10:26:03;;;;;;;;;;;;;;;4.40;85.16;100479.47;6025177;29;19961;-69
2021/04/22 10:29:06;;;;;;;;;;;;;;;4.48;84.96;100464.19;6025153;29;19921;-70
2021/04/22 10:32:13;;;;;;;;;;;;;;;4.73;84.07;100473.66;6024196;29;20186;-71
2021/04/22 10:35:17;;;;;;;;;;;;;;;4.57;83.67;100490.91;6025423;29;19920;-70
2021/04/22 10:38:21;;;;;;;;;;;;;;;4.48;83.80;100486.63;6025427;29;19921;-70
2021/04/22 10:41:28;;;;;;;;;;;;;;;4.48;84.51;100502.00;6023978;29;19920;-70
2021/04/22 10:44:32;;;;;;;;;;;;;;;4.68;84.56;100503.97;6025078;29;19996;-70
2021/04/22 10:47:35;;;;;;;;;;;;;;;4.56;83.51;100505.47;6024975;29;19920;-70
2021/04/22 10:50:40;;;;;;;;;;;;;;;4.53;82.74;100522.03;6024996;29;19936;-70
2021/04/22 10:53:43;;;;;;;;;;;;;;;4.56;83.52;100521.66;6025106;29;19920;-70
2021/04/22 10:56:48;;;;;;;;;;;;;;;4.48;83.78;100534.41;6024831;29;19928;-71
2021/04/22 11:00:02;;;;;;;;;;;;;;;4.34;83.44;100539.59;6024908;29;20004;-69
2021/04/22 11:03:24;;;;;;;;;;;;;;;4.29;84.58;100547.44;6024772;29;19983;-70
2021/04/22 11:06:32;;;;;;;;;;;;;;;4.45;83.96;100543.72;6025373;29;19920;-70
2021/04/22 11:09:36;;;;;;;;;;;;;;;4.44;84.55;100539.38;6024892;29;19920;-70
2021/04/22 11:12:39;;;;;;;;;;;;;;;4.44;84.73;100560.97;6025018;29;19965;-70
2021/04/22 11:15:46;;;;;;;;;;;;;;;4.41;82.67;100561.34;6025058;29;19955;-70
2021/04/22 11:18:50;;;;;;;;;;;;;;;4.31;83.84;100571.56;6023832;29;20192;-70
2021/04/22 11:21:54;;;;;;;;;;;;;;;4.30;84.01;100575.28;6023682;29;20469;-70
2021/04/22 11:24:58;;;;;;;;;;;;;;;4.33;83.42;100585.72;6023396;29;20276;-70
2021/04/22 11:28:05;;;;;;;;;;;;;;;4.39;85.26;100579.59;6024523;29;19972;-70
2021/04/22 11:31:09;;;;;;;;;;;;;;;4.32;83.79;100584.03;6025919;29;19927;-70
2021/04/22 11:34:12;;;;;;;;;;;;;;;4.21;84.33;100603.38;6027966;29;20259;-70
2021/04/22 11:37:16;;;;;;;;;;;;;;;4.35;83.86;100599.88;6028954;29;19927;-70
2021/04/22 11:40:22;;;;;;;;;;;;;;;4.35;83.98;100607.97;6027656;29;20264;-70
2021/04/22 11:43:26;;;;;;;;;;;;;;;4.20;82.56;100613.34;6028981;29;19944;-70
2021/04/22 11:46:35;;;;;;;;;;;;;;;4.17;83.55;100623.66;6028623;29;20063;-70
2021/04/22 11:49:38;;;;;;;;;;;;;;;4.20;82.75;100628.69;6028486;29;19961;-70
2021/04/22 11:52:47;;;;;;;;;;;;;;;4.28;83.20;100615.13;6028611;29;19946;-70
2021/04/22 11:55:53;;;;;;;;;;;;;;;4.42;82.05;100644.03;6028831;29;19920;-70
2021/04/22 11:58:56;;;;;;;;;;;;;;;4.24;82.00;100640.81;6027261;29;20244;-70
2021/04/22 12:02:00;;;;;;;;;;;;;;;4.43;83.23;100640.31;6027321;29;19943;-70
2021/04/22 12:05:05;;;;;;;;;;;;;;;4.31;82.88;100652.59;6027523;29;19921;-71
2021/04/22 12:08:10;;;;;;;;;;;;;;;4.15;83.31;100650.00;6027086;29;20136;-70
2021/04/22 12:11:15;;;;;;;;;;;;;;;4.12;82.65;100647.66;6028249;29;19963;-70
2021/04/22 12:14:26;;;;;;;;;;;;;;;4.27;82.56;100672.84;6027659;29;19921;-70
2021/04/22 12:17:30;;;;;;;;;;;;;;;4.25;83.65;100664.09;6027779;29;19984;-70
2021/04/22 12:20:33;;;;;;;;;;;;;;;4.25;83.79;100664.09;6026927;29;19979;-70
2021/04/22 12:23:37;;;;;;;;;;;;;;;4.33;83.67;100661.34;6027781;29;19968;-70
2021/04/22 12:26:52;;;;;;;;;;;;;;;4.43;83.77;100678.13;6027627;29;19921;-69
2021/04/22 12:29:55;;;;;;;;;;;;;;;4.42;82.79;100677.28;6027114;29;20195;-70
2021/04/22 12:32:59;;;;;;;;;;;;;;;4.29;82.74;100690.56;6027881;29;19921;-70
2021/04/22 12:36:03;;;;;;;;;;;;;;;4.33;83.32;100694.59;6027870;29;19928;-70
2021/04/22 12:39:06;;;;;;;;;;;;;;;4.33;82.25;100699.16;6027337;29;19920;-70
2021/04/22 12:42:12;;;;;;;;;;;;;;;4.18;83.19;100700.97;6025679;29;20199;-70
2021/04/22 12:45:23;;;;;;;;;;;;;;;4.25;82.76;100710.00;6025789;29;20207;-70
2021/04/22 12:48:26;;;;;;;;;;;;;;;4.33;82.27;100715.38;6025310;29;19920;-71
2021/04/22 12:51:32;;;;;;;;;;;;;;;4.38;81.31;100715.66;6027186;29;19927;-70
2021/04/22 12:54:35;;;;;;;;;;;;;;;4.32;82.75;100713.66;6026774;29;19920;-69
2021/04/22 12:57:39;;;;;;;;;;;;;;;4.22;82.42;100713.91;6026852;29;19921;-70
2021/04/22 13:00:45;;;;;;;;;;;;;;;4.24;83.13;100728.06;6026756;29;20185;-70
2021/04/22 13:03:49;;;;;;;;;;;;;;;4.34;82.51;100722.44;6025962;29;20034;-70
2021/04/22 13:06:52;;;;;;;;;;;;;;;4.27;83.17;100732.28;6026865;29;19920;-70
2021/04/22 13:09:56;;;;;;;;;;;;;;;4.14;82.37;100732.00;6026790;29;19975;-70
2021/04/22 13:13:00;;;;;;;;;;;;;;;4.13;82.80;100752.81;6025557;29;19920;-70
2021/04/22 13:16:08;;;;;;;;;;;;;;;4.23;82.60;100736.38;6026845;29;19921;-70
2021/04/22 13:19:16;;;;;;;;;;;;;;;4.38;82.27;100739.97;6026813;29;19928;-70
2021/04/22 13:22:19;;;;;;;;;;;;;;;4.24;82.30;100756.94;6026505;29;19928;-70
2021/04/22 13:25:27;;;;;;;;;;;;;;;4.31;82.75;100755.22;6025969;29;19921;-70
2021/04/22 13:28:31;;;;;;;;;;;;;;;4.05;83.11;100765.50;6025744;29;19920;-70
2021/04/22 13:31:34;;;;;;;;;;;;;;;4.27;83.91;100753.88;6026187;29;19920;-70
2021/04/22 13:34:39;;;;;;;;;;;;;;;4.10;82.77;100763.09;6026295;29;19920;-70
2021/04/22 13:37:42;;;;;;;;;;;;;;;4.18;82.83;100776.56;6026093;29;19920;-70
2021/04/22 13:40:45;;;;;;;;;;;;;;;4.37;81.39;100768.84;6024934;29;20199;-70
2021/04/22 13:43:53;;;;;;;;;;;;;;;4.23;81.87;100774.16;6024732;29;19920;-70
2021/04/22 13:46:57;;;;;;;;;;;;;;;4.13;81.77;100773.56;6024652;29;19998;-70
2021/04/22 13:50:00;;;;;;;;;;;;;;;4.08;82.11;100786.75;6024735;29;20141;-70
2021/04/22 13:53:04;;;;;;;;;;;;;;;4.01;82.55;100780.34;6025646;29;19920;-70
2021/04/22 13:56:09;;;;;;;;;;;;;;;4.05;82.24;100793.34;6025929;29;19956;-70
2021/04/22 13:59:13;;;;;;;;;;;;;;;4.03;81.66;100797.22;6025630;29;19920;-69
2021/04/22 14:02:17;;;;;;;;;;;;;;;3.96;81.82;100788.13;6025802;29;19924;-69
2021/04/22 14:05:22;;;;;;;;;;;;;;;4.11;83.14;100797.19;6025525;29;20053;-70
2021/04/22 14:08:29;;;;;;;;;;;;;;;4.20;82.55;100807.78;6025488;29;19983;-69
2021/04/22 14:11:36;;;;;;;;;;;;;;;4.08;81.92;100819.13;6025534;29;19921;-70
2021/04/22 14:14:43;;;;;;;;;;;;;;;3.86;82.28;100834.22;6008780;29;19927;-70
2021/04/22 14:17:46;;;;;;;;;;;;;;;3.87;81.43;100837.78;6025506;29;19924;-70
2021/04/22 14:20:49;;;;;;;;;;;;;;;3.78;83.11;100835.09;6024379;29;19920;-70
2021/04/22 14:23:54;;;;;;;;;;;;;;;3.75;83.46;100840.84;6024771;29;19988;-70
2021/04/22 14:26:57;;;;;;;;;;;;;;;3.78;83.48;100832.41;6025181;29;19968;-70
2021/04/22 14:30:01;;;;;;;;;;;;;;;3.68;83.11;100845.25;6024244;29;20012;-70
2021/04/22 14:33:05;;;;;;;;;;;;;;;3.85;82.82;100866.81;6024300;29;19956;-70
2021/04/22 14:36:09;;;;;;;;;;;;;;;3.89;83.69;100851.94;6024229;29;19924;-70
2021/04/22 14:39:12;;;;;;;;;;;;;;;3.97;82.95;100860.84;6025089;29;19966;-70
2021/04/22 14:42:15;;;;;;;0.70;0.70;;;;;;;3.82;81.86;100859.88;6024744;29;20259;-71
2021/04/22 14:45:19;;;;;;;0.70;0.70;;;;;;;3.73;83.56;100875.25;6024604;29;20261;-70
2021/04/22 14:48:21;;;;;;;0.93;0.93;;;;;;;3.72;83.43;100870.84;6024487;29;20266;-70
2021/04/22 14:51:25;;;;;;;0.93;0.93;;;;;;;3.77;83.38;100881.97;6007747;29;20210;-70
2021/04/22 14:54:28;;;;;;;0.87;0.87;;;;;;;3.57;84.99;100894.16;6024369;29;20195;-70
2021/04/22 14:57:32;;;;;;;0.83;0.83;;;;;;;3.67;83.54;100885.91;6024923;29;20195;-71
2021/04/22 15:00:36;;;;;;;2.10;0.80;;;;;;;3.77;83.81;100897.34;6024797;29;20226;-70
2021/04/22 15:03:39;;;;;;;1.53;1.00;;;;;;;3.73;84.42;100886.03;6024361;29;20275;-70
2021/04/22 15:06:43;;;;;;;0.80;0.80;;;;;;;3.76;82.89;100895.66;6026253;29;20201;-71